Terminal Aerodrome Forecast
Issued by NWS

Home | Current Version | Previous Version | Text Only | Print | Product List | Glossary On
Versions: 1 2 3 4 5 6 7 8 9 10 11 12 13 14 15 16 17 18 19 20 21 22
000
FTUS41 KGYX 260538
TAFAUG
TAF
KAUG 260538Z 2606/2706 27005KT P6SM BKN200
     FM261700 01010KT 4SM -SN BR OVC035
     FM262000 01015G25KT 1/2SM SN FG OVC003
     FM270400 36018G28KT 2SM -SN BLSN BR OVC003=

USA.gov is the U.S. government's official web portal to all federal, state and local government web resources and services.